»·PEaware :: N751LU KAMA-KMSO

N751LU :: KAMA-KMSO

FLIGHT INFORMATION

Flight Status: Arrived
Operator: Privately registered:
United States
More flights under this callsign
Pilot: Ewen S. (18928)
Aircraft: CANADAIR CL-600 CHALLENGER
(CL60)
More flights by this aircraft type
Origin: KAMA Amarillo Intl
United States
Destination: KMSO Missoula Intl
United States
More flights between these airports :: More routes between these airports
Route: PNH J17 PUB CHE OCS J52 DBS JENKI
File this flight plan on PilotEdge
Remarks:
Altitude:
(Current/Filed)
36,000ft
Speed:
(Current/Filed)
460kts
Departed: 15-Nov-23 12:14 PM
Arrived: 15-Nov-23 02:54 PM
Distance/Time
Traveled:
896nm/2:40
Distance/Time
To Go:
Arrived

Flight Plot

Page will automatically refresh every two minutes.

Flight plan parsing failed; only flown route is shown


Map Options




Map Legend


Flown Route
Filed Route
Departure Airport
Arrival Airport
Navaid (VOR, NDB)
Fix

Horizontal Profiles

Position Reports

Time Latitude Longitude Heading Altitude Ground
Speed
15-Nov-23 11:53 35.217393 -101.708862 226 3613ft 0kts
15-Nov-23 11:54 35.217393 -101.708862 226 3613ft 0kts
15-Nov-23 11:55 35.217393 -101.708862 226 3613ft 0kts
15-Nov-23 11:56 35.217393 -101.708862 226 3613ft 0kts
15-Nov-23 11:57 35.217393 -101.708862 226 3613ft 0kts
15-Nov-23 11:58 35.217393 -101.708862 226 3613ft 0kts
15-Nov-23 11:59 35.217393 -101.708862 226 3613ft 0kts
15-Nov-23 12:00 35.217393 -101.708862 226 3613ft 0kts
15-Nov-23 12:01 35.217393 -101.708862 226 3613ft 0kts
15-Nov-23 12:02 35.217393 -101.708862 226 3613ft 0kts
15-Nov-23 12:03 35.217393 -101.708862 226 3613ft 0kts
15-Nov-23 12:04 35.217393 -101.708862 226 3613ft 0kts
15-Nov-23 12:05 35.217393 -101.708862 226 3613ft 0kts
15-Nov-23 12:06 35.217393 -101.708862 226 3613ft 0kts
15-Nov-23 12:07 35.217392 -101.708862 226 3613ft 0kts
15-Nov-23 12:08 35.217534 -101.709638 288 3613ft 14kts
15-Nov-23 12:09 35.220767 -101.707643 48 3607ft 22kts
15-Nov-23 12:10 35.224412 -101.703088 45 3607ft 21kts
15-Nov-23 12:11 35.228792 -101.698158 346 3603ft 14kts
15-Nov-23 12:12 35.230479 -101.700718 218 3602ft 12kts
15-Nov-23 12:13 35.207771 -101.729336 218 4661ft 193kts
15-Nov-23 12:14 35.154930 -101.782792 217 8162ft 274kts
15-Nov-23 12:15 35.109032 -101.856020 273 12647ft 295kts
15-Nov-23 12:16 35.172086 -101.915556 339 16655ft 319kts
15-Nov-23 12:17 35.258719 -101.947450 339 20087ft 330kts
15-Nov-23 12:18 35.353233 -101.954572 3 22957ft 356kts
15-Nov-23 12:19 35.454144 -101.936523 358 25574ft 368kts
15-Nov-23 12:20 35.543958 -101.981123 318 27947ft 353kts
15-Nov-23 12:21 35.623963 -102.054696 318 30133ft 360kts
15-Nov-23 12:22 35.705980 -102.130312 318 31774ft 372kts
15-Nov-23 12:23 35.789919 -102.207866 318 33272ft 380kts
15-Nov-23 12:24 35.875267 -102.286925 318 34588ft 384kts
15-Nov-23 12:25 35.959361 -102.365001 318 36052ft 377kts
15-Nov-23 12:26 36.046778 -102.446544 317 36023ft 404kts
15-Nov-23 12:27 36.138960 -102.532679 317 36021ft 418kts
15-Nov-23 12:28 36.231830 -102.619655 318 36023ft 416kts
15-Nov-23 12:29 36.324665 -102.706898 317 36019ft 415kts
15-Nov-23 12:30 36.416996 -102.793951 317 36017ft 415kts
15-Nov-23 12:31 36.509289 -102.881240 317 35975ft 415kts
15-Nov-23 12:32 36.601298 -102.968542 317 35974ft 416kts
15-Nov-23 12:33 36.693247 -103.056050 317 36015ft 416kts
15-Nov-23 12:34 36.785572 -103.144196 317 35984ft 416kts
15-Nov-23 12:35 36.877564 -103.232305 317 35982ft 416kts
15-Nov-23 12:36 36.969900 -103.321027 317 35994ft 418kts
15-Nov-23 12:37 37.062666 -103.410431 317 36005ft 417kts
15-Nov-23 12:38 37.154926 -103.499634 317 35950ft 416kts
15-Nov-23 12:39 37.246901 -103.588840 317 35964ft 417kts
15-Nov-23 12:40 37.345588 -103.669187 321 35998ft 421kts
15-Nov-23 12:41 37.445500 -103.748052 322 35990ft 421kts
15-Nov-23 12:42 37.545005 -103.826918 322 35951ft 421kts
15-Nov-23 12:43 37.644670 -103.906212 322 35941ft 423kts
15-Nov-23 12:44 37.744613 -103.985999 322 35942ft 422kts
15-Nov-23 12:45 37.844094 -104.065690 321 35959ft 423kts
15-Nov-23 12:46 37.944051 -104.146036 322 35910ft 425kts
15-Nov-23 12:47 38.043942 -104.226577 322 35885ft 423kts
15-Nov-23 12:48 38.143435 -104.307074 321 35929ft 423kts
15-Nov-23 12:49 38.242437 -104.387445 322 35938ft 424kts
15-Nov-23 12:51 38.334260 -104.478662 311 35949ft 416kts
15-Nov-23 12:52 38.417896 -104.582246 311 35929ft 417kts
15-Nov-23 12:53 38.501282 -104.685774 311 35979ft 418kts
15-Nov-23 12:54 38.584754 -104.789718 310 35993ft 419kts
15-Nov-23 12:55 38.668168 -104.893920 311 36040ft 418kts
15-Nov-23 12:56 38.751315 -104.998134 310 36010ft 418kts
15-Nov-23 12:57 38.834679 -105.102975 310 36017ft 419kts
15-Nov-23 12:58 38.918301 -105.208513 311 36067ft 422kts
15-Nov-23 12:59 39.001611 -105.313996 311 36075ft 420kts
15-Nov-23 13:00 39.084901 -105.419829 310 36089ft 420kts
15-Nov-23 13:01 39.168124 -105.525954 310 36059ft 419kts
15-Nov-23 13:02 39.250867 -105.631829 310 36081ft 417kts
15-Nov-23 13:03 39.333529 -105.737986 309 36075ft 417kts
15-Nov-23 13:04 39.415571 -105.843723 309 36104ft 417kts
15-Nov-23 13:05 39.497900 -105.950182 309 36073ft 417kts
15-Nov-23 13:06 39.580238 -106.057055 309 36038ft 418kts
15-Nov-23 13:07 39.662500 -106.164185 309 36053ft 417kts
15-Nov-23 13:08 39.744340 -106.271160 308 36128ft 417kts
15-Nov-23 13:09 39.826412 -106.378826 308 36059ft 417kts
15-Nov-23 13:10 39.908064 -106.486331 308 36053ft 419kts
15-Nov-23 13:11 39.990074 -106.594686 308 36040ft 419kts
15-Nov-23 13:12 40.072010 -106.703345 308 36042ft 420kts
15-Nov-23 13:13 40.153709 -106.812073 308 35980ft 418kts
15-Nov-23 13:14 40.235164 -106.920887 308 36018ft 419kts
15-Nov-23 13:15 40.317068 -107.030708 307 36005ft 420kts
15-Nov-23 13:16 40.398682 -107.140520 308 35997ft 418kts
15-Nov-23 13:16 40.466360 -107.231910 308 35989ft 418kts
15-Nov-23 13:18 40.558308 -107.363716 304 36032ft 415kts
15-Nov-23 13:19 40.633163 -107.480670 304 36023ft 415kts
15-Nov-23 13:20 40.707792 -107.597652 304 35944ft 415kts
15-Nov-23 13:21 40.782016 -107.714400 303 35946ft 416kts
15-Nov-23 13:21 40.844029 -107.812259 303 35942ft 416kts
15-Nov-23 13:22 40.918403 -107.930035 303 35931ft 417kts
15-Nov-23 13:24 41.004905 -108.067576 303 35915ft 417kts
15-Nov-23 13:24 41.066854 -108.166467 303 35927ft 418kts
15-Nov-23 13:26 41.153684 -108.305596 303 35918ft 417kts
15-Nov-23 13:27 41.227508 -108.424397 303 35959ft 416kts
15-Nov-23 13:27 41.288988 -108.523691 303 35910ft 415kts
15-Nov-23 13:28 41.362498 -108.642850 303 35910ft 415kts
15-Nov-23 13:29 41.435780 -108.762101 302 35905ft 415kts
15-Nov-23 13:30 41.508107 -108.880271 302 35904ft 415kts
15-Nov-23 13:31 41.581190 -109.000087 302 36161ft 411kts
15-Nov-23 13:33 41.681434 -109.125766 310 36243ft 427kts
15-Nov-23 13:33 41.755174 -109.215082 310 35942ft 424kts
15-Nov-23 13:34 41.842749 -109.321674 310 35901ft 424kts
15-Nov-23 13:35 41.930304 -109.428680 310 35900ft 425kts
15-Nov-23 13:36 42.018111 -109.536433 310 35864ft 426kts
15-Nov-23 13:37 42.105542 -109.644149 310 35873ft 425kts
15-Nov-23 13:38 42.193184 -109.752583 309 35827ft 425kts
15-Nov-23 13:40 42.294854 -109.878913 309 35859ft 425kts
15-Nov-23 13:40 42.367336 -109.969335 309 35892ft 425kts
15-Nov-23 13:41 42.454420 -110.078367 309 35891ft 425kts
15-Nov-23 13:42 42.540987 -110.187171 309 35840ft 423kts
15-Nov-23 13:43 42.627648 -110.296558 309 35815ft 424kts
15-Nov-23 13:44 42.713920 -110.405879 309 36139ft 425kts
15-Nov-23 13:45 42.800959 -110.516613 308 36113ft 426kts
15-Nov-23 13:46 42.887565 -110.627225 308 36100ft 425kts
15-Nov-23 13:47 42.974028 -110.738098 308 36043ft 424kts
15-Nov-23 13:48 43.060407 -110.849334 308 36077ft 424kts
15-Nov-23 13:49 43.146704 -110.960918 308 35987ft 426kts
15-Nov-23 13:50 43.232947 -111.072869 308 35963ft 424kts
15-Nov-23 13:51 43.318743 -111.184711 308 35965ft 425kts
15-Nov-23 13:52 43.404344 -111.296751 308 35949ft 424kts
15-Nov-23 13:53 43.489763 -111.409010 308 35953ft 423kts
15-Nov-23 13:54 43.574566 -111.520924 307 35952ft 422kts
15-Nov-23 13:55 43.659895 -111.634027 308 35901ft 426kts
15-Nov-23 13:56 43.745199 -111.747503 307 35892ft 423kts
15-Nov-23 13:57 43.829876 -111.860629 307 35808ft 421kts
15-Nov-23 13:58 43.913990 -111.973507 307 35895ft 422kts
15-Nov-23 13:59 43.998639 -112.087558 307 35845ft 422kts
15-Nov-23 14:00 44.083521 -112.200666 312 35766ft 426kts
15-Nov-23 14:01 44.187949 -112.288427 320 35772ft 440kts
15-Nov-23 14:02 44.294632 -112.373728 320 35755ft 441kts
15-Nov-23 14:03 44.400647 -112.458820 320 35760ft 439kts
15-Nov-23 14:04 44.506849 -112.544475 320 35754ft 442kts
15-Nov-23 14:05 44.613486 -112.630803 320 35672ft 440kts
15-Nov-23 14:06 44.720695 -112.717975 320 35635ft 439kts
15-Nov-23 14:07 44.826872 -112.804702 320 35682ft 441kts
15-Nov-23 14:08 44.933162 -112.891887 320 35672ft 441kts
15-Nov-23 14:09 45.039688 -112.979634 319 35352ft 441kts
15-Nov-23 14:10 45.145769 -113.067399 319 35566ft 442kts
15-Nov-23 14:11 45.252289 -113.155909 320 35512ft 442kts
15-Nov-23 14:12 45.357572 -113.243614 319 34938ft 426kts
15-Nov-23 14:13 45.457668 -113.327429 319 32938ft 409kts
15-Nov-23 14:14 45.553768 -113.408247 319 31083ft 391kts
15-Nov-23 14:15 45.646029 -113.486192 319 29216ft 376kts
15-Nov-23 14:16 45.734956 -113.561627 318 27310ft 364kts
15-Nov-23 14:17 45.821105 -113.634977 318 25402ft 353kts
15-Nov-23 14:18 45.904273 -113.706067 318 23476ft 344kts
15-Nov-23 14:19 45.984184 -113.774563 318 21552ft 334kts
15-Nov-23 14:20 46.063231 -113.842571 318 19542ft 324kts
15-Nov-23 14:21 46.140263 -113.909071 318 17536ft 316kts
15-Nov-23 14:22 46.215306 -113.974072 319 15524ft 310kts
15-Nov-23 14:23 46.288170 -114.037228 318 14251ft 289kts
15-Nov-23 14:24 46.360211 -114.094729 340 14270ft 312kts
15-Nov-23 14:25 46.451913 -114.082715 358 14263ft 333kts
15-Nov-23 14:26 46.538633 -114.089520 310 14260ft 286kts
15-Nov-23 14:27 46.600608 -114.163867 311 14239ft 285kts
15-Nov-23 14:28 46.664369 -114.236412 313 13920ft 290kts
15-Nov-23 14:29 46.726444 -114.304656 312 12914ft 265kts
15-Nov-23 14:30 46.785458 -114.369926 312 12197ft 267kts
15-Nov-23 14:31 46.842513 -114.437988 291 12189ft 247kts
15-Nov-23 14:32 46.854670 -114.532840 271 12176ft 235kts
15-Nov-23 14:33 46.863567 -114.627341 271 12188ft 235kts
15-Nov-23 14:34 46.872436 -114.722167 270 12176ft 232kts
15-Nov-23 14:35 46.881187 -114.816720 270 12169ft 234kts
15-Nov-23 14:36 46.895487 -114.910798 282 12154ft 242kts
15-Nov-23 14:37 46.931584 -114.996944 301 12118ft 258kts
15-Nov-23 14:38 46.990649 -115.062837 323 12098ft 277kts
15-Nov-23 14:39 47.068219 -115.091919 348 12083ft 293kts
15-Nov-23 14:40 47.152463 -115.069485 17 12048ft 315kts
15-Nov-23 14:41 47.224834 -114.990583 47 12057ft 326kts
15-Nov-23 14:42 47.265080 -114.871589 79 12063ft 324kts
15-Nov-23 14:43 47.264728 -114.741292 111 12069ft 311kts
15-Nov-23 14:44 47.229561 -114.633014 138 12083ft 268kts
15-Nov-23 14:45 47.176872 -114.555270 146 10741ft 268kts
15-Nov-23 14:46 47.122649 -114.480417 143 9369ft 265kts
15-Nov-23 14:47 47.078324 -114.400614 126 8051ft 242kts
15-Nov-23 14:48 47.044291 -114.316693 125 6855ft 234kts
15-Nov-23 14:49 47.004876 -114.243878 133 5696ft 225kts
15-Nov-23 14:50 46.967008 -114.178786 131 4520ft 189kts
15-Nov-23 14:51 46.938592 -114.130443 131 3643ft 138kts
15-Nov-23 14:52 46.915054 -114.089827 130 3204ft 83kts
15-Nov-23 14:53 46.913421 -114.084185 30 3206ft 5kts
15-Nov-23 14:54 46.915386 -114.085750 358 3205ft 10kts
15-Nov-23 14:55 46.919300 -114.085998 2 3209ft 15kts
15-Nov-23 14:56 46.921935 -114.086126 47 3211ft 0kts
15-Nov-23 14:57 46.921935 -114.086126 47 3211ft 0kts

Navigation Log

Ident Type
Flight plan parsing failed, navigation log unavailable